createdAt,value
2022-09-25T00:02:27.508Z,7.05
2022-09-25T00:04:56.232Z,10.93
2022-09-25T00:07:24.324Z,6.57
2022-09-25T00:09:52.484Z,9.00
2022-09-25T00:12:20.781Z,8.45
2022-09-25T00:14:52.574Z,9.32
2022-09-25T00:17:21.015Z,8.45
2022-09-25T00:19:50.881Z,10.05
2022-09-25T00:22:19.577Z,14.00
2022-09-25T00:24:48.230Z,9.77
2022-09-25T00:27:16.820Z,11.23
2022-09-25T00:29:45.394Z,9.77
2022-09-25T00:32:15.361Z,8.83
2022-09-25T00:34:43.705Z,9.13
2022-09-25T00:37:11.851Z,7.35
2022-09-25T00:39:40.308Z,8.95
2022-09-25T00:42:12.003Z,8.23
2022-09-25T00:45:01.390Z,6.95
2022-09-25T00:47:45.928Z,7.75
2022-09-25T00:50:25.343Z,9.13
2022-09-25T00:52:58.950Z,6.70
2022-09-25T00:55:28.177Z,7.70
2022-09-25T00:57:58.800Z,6.53
2022-09-25T01:00:26.934Z,7.82
2022-09-25T01:02:57.693Z,7.68
2022-09-25T01:05:31.640Z,8.38
2022-09-25T01:08:02.595Z,9.60
2022-09-25T01:10:32.192Z,6.65
2022-09-25T01:13:02.224Z,11.23
2022-09-25T01:15:39.268Z,7.68
2022-09-25T01:18:21.418Z,9.85
2022-09-25T01:21:07.256Z,11.30
2022-09-25T01:23:57.306Z,10.70
2022-09-25T01:26:42.690Z,9.13
2022-09-25T01:29:15.500Z,11.88
2022-09-25T01:31:48.880Z,10.35
2022-09-25T01:34:24.023Z,12.88
2022-09-25T01:36:59.124Z,13.75
2022-09-25T01:39:33.072Z,19.45
2022-09-25T01:42:10.578Z,13.95
2022-09-25T01:44:44.862Z,14.95
2022-09-25T01:47:20.446Z,14.57
2022-09-25T01:49:52.462Z,15.30
2022-09-25T01:52:25.913Z,18.45
2022-09-25T01:54:58.804Z,27.88
2022-09-25T01:57:32.066Z,21.67
2022-09-25T02:00:08.687Z,19.15
2022-09-25T02:02:43.255Z,19.92
2022-09-25T02:05:18.908Z,14.10
2022-09-25T02:07:51.948Z,19.85
2022-09-25T02:10:32.511Z,14.15
2022-09-25T02:13:09.638Z,21.35
2022-09-25T02:15:44.801Z,21.45
2022-09-25T02:18:34.054Z,17.95
2022-09-25T02:21:13.484Z,24.35
2022-09-25T02:23:53.484Z,15.07
2022-09-25T02:26:27.682Z,22.33
2022-09-25T02:28:56.769Z,21.83
2022-09-25T02:31:31.085Z,28.23
2022-09-25T02:33:59.566Z,13.55
2022-09-25T02:36:27.752Z,24.13
2022-09-25T02:38:57.282Z,30.65
2022-09-25T02:41:50.415Z,18.70
2022-09-25T02:44:29.581Z,17.50
2022-09-25T02:47:13.132Z,19.95
2022-09-25T02:49:52.122Z,12.57
2022-09-25T02:52:28.634Z,12.05
2022-09-25T02:54:59.578Z,12.98
2022-09-25T02:57:38.137Z,13.60
2022-09-25T03:00:09.646Z,16.20
2022-09-25T03:02:40.321Z,12.70
2022-09-25T03:05:11.381Z,20.25
2022-09-25T03:07:54.496Z,13.02
2022-09-25T03:10:23.434Z,13.70
2022-09-25T03:12:52.650Z,15.88
2022-09-25T03:15:23.885Z,13.05
2022-09-25T03:17:54.824Z,15.43
2022-09-25T03:20:22.911Z,14.35
2022-09-25T03:22:51.740Z,14.02
2022-09-25T03:25:22.511Z,16.88
2022-09-25T03:27:54.437Z,20.27
2022-09-25T03:30:24.186Z,12.95
2022-09-25T03:32:52.425Z,12.38
2022-09-25T03:35:23.016Z,12.95
2022-09-25T03:37:51.224Z,13.48
2022-09-25T03:40:19.376Z,14.27
2022-09-25T03:42:47.693Z,14.50
2022-09-25T03:45:17.115Z,14.82
2022-09-25T03:47:45.400Z,13.10
2022-09-25T03:50:15.602Z,14.07
2022-09-25T03:52:45.459Z,14.00
2022-09-25T03:55:13.533Z,12.57
2022-09-25T03:57:41.787Z,14.80
2022-09-25T04:00:10.766Z,15.93
2022-09-25T04:02:38.902Z,15.73
2022-09-25T04:05:08.109Z,14.00
2022-09-25T04:07:36.222Z,14.65
2022-09-25T04:10:06.083Z,15.23
2022-09-25T04:12:34.581Z,15.38
2022-09-25T04:15:02.973Z,15.38
2022-09-25T04:17:31.625Z,14.90
2022-09-25T04:19:59.676Z,16.55
2022-09-25T04:22:27.894Z,16.83
2022-09-25T04:24:57.183Z,14.50
2022-09-25T04:27:26.742Z,16.48
2022-09-25T04:29:54.779Z,15.88
2022-09-25T04:32:42.752Z,16.13
2022-09-25T04:35:14.031Z,17.73
2022-09-25T04:37:42.117Z,14.27
2022-09-25T04:40:11.325Z,14.43
2022-09-25T04:42:43.214Z,13.30
2022-09-25T04:45:12.128Z,15.18
2022-09-25T04:47:40.327Z,15.60
2022-09-25T04:50:10.929Z,13.93
2022-09-25T04:52:39.170Z,13.30
2022-09-25T04:55:07.829Z,13.90
2022-09-25T04:57:59.974Z,13.95
2022-09-25T05:00:27.442Z,15.25
2022-09-25T05:02:55.756Z,15.43
2022-09-25T05:05:30.633Z,14.90
2022-09-25T05:07:59.767Z,14.40
2022-09-25T05:10:30.792Z,15.50
2022-09-25T05:13:00.373Z,13.65
2022-09-25T05:15:31.730Z,13.68
2022-09-25T05:18:03.990Z,15.88
2022-09-25T05:20:32.244Z,14.40
2022-09-25T05:23:04.629Z,14.93
2022-09-25T05:25:34.397Z,14.15
2022-09-25T05:28:05.855Z,16.13
2022-09-25T05:30:46.930Z,12.70
2022-09-25T05:33:16.059Z,13.52
2022-09-25T05:35:44.256Z,13.68
2022-09-25T05:38:12.720Z,13.85
2022-09-25T05:40:40.948Z,15.40
2022-09-25T05:43:09.781Z,13.48
2022-09-25T05:45:38.113Z,12.32
2022-09-25T05:48:14.832Z,13.95
2022-09-25T05:50:43.011Z,12.50
2022-09-25T05:53:11.337Z,12.10
2022-09-25T05:55:39.527Z,14.10
2022-09-25T05:58:07.673Z,14.45
2022-09-25T06:00:35.933Z,12.73
2022-09-25T06:03:04.113Z,14.57
2022-09-25T06:05:34.837Z,13.27
2022-09-25T06:08:03.648Z,13.50
2022-09-25T06:10:32.070Z,14.52
2022-09-25T06:13:01.151Z,13.52
2022-09-25T06:15:30.626Z,14.68
2022-09-25T06:17:59.878Z,16.60
2022-09-25T06:20:29.061Z,15.20
2022-09-25T06:23:00.040Z,13.95
2022-09-25T06:25:30.191Z,13.50
2022-09-25T06:28:00.344Z,12.10
2022-09-25T06:30:34.183Z,14.80
2022-09-25T06:33:03.496Z,15.55
2022-09-25T06:35:31.718Z,14.80
2022-09-25T06:38:02.383Z,13.90
2022-09-25T06:40:32.413Z,12.85
2022-09-25T06:43:02.642Z,13.07
2022-09-25T06:45:34.247Z,11.73
2022-09-25T06:48:03.237Z,13.15
2022-09-25T06:50:45.302Z,11.98
2022-09-25T06:53:15.864Z,11.35
2022-09-25T06:55:45.326Z,11.88
2022-09-25T06:58:15.836Z,12.90
2022-09-25T07:00:48.176Z,12.77
2022-09-25T07:03:34.219Z,12.07
2022-09-25T07:06:03.114Z,13.20
2022-09-25T07:08:33.137Z,12.45
2022-09-25T07:11:02.754Z,12.75
2022-09-25T07:13:35.046Z,12.82
2022-09-25T07:16:04.718Z,12.68
2022-09-25T07:18:33.441Z,15.48
2022-09-25T07:21:04.053Z,12.63
2022-09-25T07:23:33.842Z,11.85
2022-09-25T07:26:07.437Z,11.45
2022-09-25T07:28:35.595Z,12.77
2022-09-25T07:31:15.638Z,11.05
2022-09-25T07:33:44.285Z,10.65
2022-09-25T07:36:13.969Z,11.48
2022-09-25T07:38:43.985Z,9.77
2022-09-25T07:41:13.534Z,12.05
2022-09-25T07:43:43.767Z,10.70
2022-09-25T07:46:12.960Z,10.30
2022-09-25T07:48:41.264Z,10.32
2022-09-25T07:51:12.113Z,11.75
2022-09-25T07:53:41.189Z,11.13
2022-09-25T07:56:12.142Z,9.93
2022-09-25T07:58:40.686Z,13.27
2022-09-25T08:01:12.901Z,13.43
2022-09-25T08:03:41.033Z,11.57
2022-09-25T08:06:13.403Z,10.65
2022-09-25T08:08:43.195Z,11.73
2022-09-25T08:11:14.700Z,13.35
2022-09-25T08:13:43.553Z,12.40
2022-09-25T08:16:16.461Z,13.93
2022-09-25T08:18:46.561Z,11.60
2022-09-25T08:21:16.342Z,10.05
2022-09-25T08:23:48.161Z,12.63
2022-09-25T08:26:18.475Z,9.93
2022-09-25T08:28:46.881Z,11.07
2022-09-25T08:31:15.558Z,10.18
2022-09-25T08:33:46.147Z,9.88
2022-09-25T08:36:14.616Z,11.48
2022-09-25T08:38:43.139Z,12.85
2022-09-25T08:41:16.535Z,13.35
2022-09-25T08:43:52.609Z,10.77
2022-09-25T08:46:41.827Z,9.75
2022-09-25T08:49:11.462Z,8.65
2022-09-25T08:51:44.220Z,8.90
2022-09-25T08:54:19.741Z,8.80
2022-09-25T08:56:51.821Z,10.20
2022-09-25T08:59:28.627Z,9.45
2022-09-25T09:02:00.249Z,9.35
2022-09-25T09:04:32.073Z,9.13
2022-09-25T09:07:25.809Z,9.65
2022-09-25T09:09:58.953Z,8.60
2022-09-25T09:12:36.905Z,8.25
2022-09-25T09:15:30.392Z,7.75
2022-09-25T09:18:01.048Z,7.70
2022-09-25T09:20:35.195Z,8.18
2022-09-25T09:23:05.960Z,8.15
2022-09-25T09:25:45.173Z,7.97
2022-09-25T09:28:28.159Z,8.52
2022-09-25T09:31:06.590Z,9.45
2022-09-25T09:33:50.199Z,8.35
2022-09-25T09:36:27.791Z,7.88
2022-09-25T09:39:05.837Z,8.55
2022-09-25T09:41:49.613Z,9.30
2022-09-25T09:44:34.635Z,8.27
2022-09-25T09:47:15.124Z,6.93
2022-09-25T09:49:47.627Z,7.07
2022-09-25T09:52:21.847Z,7.40
2022-09-25T09:54:56.598Z,6.38
2022-09-25T09:57:28.526Z,6.68
2022-09-25T10:00:05.033Z,7.65
2022-09-25T10:02:42.189Z,8.77
2022-09-25T10:05:18.246Z,8.27
2022-09-25T10:07:50.769Z,6.63
2022-09-25T10:10:20.388Z,6.68
2022-09-25T10:12:51.933Z,7.93
2022-09-25T10:15:30.333Z,7.57
2022-09-25T10:18:02.267Z,7.20
2022-09-25T10:20:40.248Z,7.82
2022-09-25T10:23:34.467Z,7.00
2022-09-25T10:26:02.666Z,7.80
2022-09-25T10:28:34.247Z,7.57
2022-09-25T10:31:07.040Z,6.80
2022-09-25T10:33:36.569Z,7.43
2022-09-25T10:36:05.150Z,8.00
2022-09-25T10:38:41.630Z,7.28
2022-09-25T10:41:13.269Z,6.88
2022-09-25T10:43:55.256Z,7.63
2022-09-25T10:46:48.478Z,9.30
2022-09-25T10:49:38.835Z,7.28
2022-09-25T10:52:08.978Z,7.60
2022-09-25T10:54:43.647Z,10.65
2022-09-25T10:57:23.289Z,8.77
2022-09-25T10:59:53.446Z,7.35
2022-09-25T11:02:34.159Z,7.22
2022-09-25T11:05:05.124Z,7.45
2022-09-25T11:07:34.609Z,6.97
2022-09-25T11:10:02.690Z,6.50
2022-09-25T11:12:31.176Z,6.15
2022-09-25T11:15:03.075Z,6.60
2022-09-25T11:17:35.062Z,7.53
2022-09-25T11:20:29.310Z,6.63
2022-09-25T11:23:06.426Z,5.18
2022-09-25T11:25:43.138Z,7.18
2022-09-25T11:28:17.862Z,6.57
2022-09-25T11:30:52.664Z,7.25
2022-09-25T11:33:32.084Z,7.20
2022-09-25T11:36:06.033Z,7.18
2022-09-25T11:38:59.949Z,6.57
2022-09-25T11:41:33.229Z,6.63
2022-09-25T11:44:22.621Z,6.13
2022-09-25T11:47:01.163Z,7.00
2022-09-25T11:49:34.496Z,6.68
2022-09-25T11:52:28.889Z,6.75
2022-09-25T11:55:34.728Z,6.78
2022-09-25T11:58:15.207Z,6.13
2022-09-25T12:01:01.348Z,6.75
2022-09-25T12:03:43.086Z,8.32
2022-09-25T12:06:32.097Z,7.57
2022-09-25T12:09:17.181Z,5.80
2022-09-25T12:11:52.913Z,6.65
2022-09-25T12:14:28.712Z,7.00
2022-09-25T12:17:05.461Z,7.18
2022-09-25T12:19:43.402Z,5.93
2022-09-25T12:22:18.611Z,5.25
2022-09-25T12:24:59.044Z,5.43
2022-09-25T12:27:42.083Z,5.55
2022-09-25T12:30:18.797Z,6.30
2022-09-25T12:33:04.418Z,5.32
2022-09-25T12:35:43.735Z,6.57
2022-09-25T12:38:22.620Z,6.15
2022-09-25T12:40:58.039Z,5.57
2022-09-25T12:43:33.490Z,6.10
2022-09-25T12:46:10.820Z,7.78
2022-09-25T12:48:44.457Z,5.38
2022-09-25T12:51:18.391Z,4.45
2022-09-25T12:53:50.665Z,4.15
2022-09-25T12:56:27.291Z,5.07
2022-09-25T12:59:05.840Z,4.32
2022-09-25T13:01:41.615Z,4.38
2022-09-25T13:04:33.982Z,6.30
2022-09-25T13:07:13.060Z,6.72
2022-09-25T13:09:44.985Z,5.70
2022-09-25T13:12:26.365Z,5.20
2022-09-25T13:14:58.165Z,5.20
2022-09-25T13:17:26.362Z,6.63
2022-09-25T13:19:56.078Z,6.30
2022-09-25T13:22:27.156Z,5.97
2022-09-25T13:25:06.456Z,5.70
2022-09-25T13:27:43.707Z,5.55
2022-09-25T13:30:22.287Z,5.30
2022-09-25T13:32:53.088Z,5.07
2022-09-25T13:35:23.855Z,5.05
2022-09-25T13:37:54.772Z,5.00
2022-09-25T13:40:42.281Z,5.60
2022-09-25T13:43:24.351Z,5.30
2022-09-25T13:46:24.940Z,5.35
2022-09-25T13:48:55.535Z,5.95
2022-09-25T13:51:36.929Z,4.80
2022-09-25T13:54:25.490Z,4.82
2022-09-25T13:56:54.325Z,5.63
2022-09-25T13:59:39.082Z,5.03
2022-09-25T14:02:38.500Z,5.00
2022-09-25T14:05:07.694Z,4.10
2022-09-25T14:07:36.631Z,4.85
2022-09-25T14:10:10.785Z,5.20
2022-09-25T14:12:43.634Z,3.78
2022-09-25T14:15:24.524Z,5.50
2022-09-25T14:17:56.100Z,4.70
2022-09-25T14:20:33.427Z,4.10
2022-09-25T14:23:07.345Z,4.43
2022-09-25T14:25:38.262Z,6.53
2022-09-25T14:28:19.824Z,4.65
2022-09-25T14:31:19.125Z,4.68
2022-09-25T14:34:07.987Z,4.00
2022-09-25T14:36:44.932Z,4.55
2022-09-25T14:39:37.794Z,5.97
2022-09-25T14:42:48.232Z,6.28
2022-09-25T14:45:34.859Z,5.35
2022-09-25T14:48:10.098Z,4.85
2022-09-25T14:50:40.689Z,5.88
2022-09-25T14:53:14.417Z,5.65
2022-09-25T14:55:51.133Z,6.32
2022-09-25T14:58:22.284Z,4.65
2022-09-25T15:00:53.879Z,4.47
2022-09-25T15:03:27.634Z,5.63
2022-09-25T15:05:56.675Z,6.38
2022-09-25T15:08:34.539Z,6.43
2022-09-25T15:11:03.816Z,5.45
2022-09-25T15:13:34.559Z,4.85
2022-09-25T15:16:20.866Z,5.50
2022-09-25T15:18:54.192Z,2.03
2022-09-25T15:21:27.481Z,3.30
2022-09-25T15:24:00.237Z,4.28
2022-09-25T15:26:29.694Z,4.43
2022-09-25T15:28:57.991Z,3.40
2022-09-25T15:31:26.403Z,4.43
2022-09-25T15:34:12.460Z,5.00
2022-09-25T15:36:40.610Z,4.13
2022-09-25T15:39:15.262Z,3.72
2022-09-25T15:41:44.513Z,5.88
2022-09-25T15:44:17.695Z,4.97
2022-09-25T15:46:47.462Z,7.78
2022-09-25T15:49:19.977Z,7.90
2022-09-25T15:51:55.847Z,4.85
2022-09-25T15:54:44.195Z,5.07
2022-09-25T15:57:15.906Z,10.77
2022-09-25T16:00:05.019Z,8.98
2022-09-25T16:02:53.472Z,5.30
2022-09-25T16:05:29.920Z,7.60
2022-09-25T16:08:17.607Z,15.65
2022-09-25T16:10:50.177Z,5.43
2022-09-25T16:13:23.168Z,7.18
2022-09-25T16:15:52.885Z,8.13
2022-09-25T16:18:34.464Z,6.22
2022-09-25T16:21:19.310Z,8.10
2022-09-25T16:23:56.208Z,5.38
2022-09-25T16:26:33.366Z,6.40
2022-09-25T16:29:07.393Z,7.05
2022-09-25T16:31:37.108Z,5.07
2022-09-25T16:34:07.183Z,6.47
2022-09-25T16:36:43.705Z,8.15
2022-09-25T16:39:28.978Z,7.20
2022-09-25T16:41:59.990Z,5.57
2022-09-25T16:44:46.855Z,8.43
2022-09-25T16:47:18.810Z,6.43
2022-09-25T16:49:47.727Z,7.30
2022-09-25T16:52:21.715Z,5.93
2022-09-25T16:54:54.627Z,6.65
2022-09-25T16:57:23.498Z,6.30
2022-09-25T16:59:51.790Z,5.40
2022-09-25T17:02:32.998Z,8.27
2022-09-25T17:05:03.497Z,7.72
2022-09-25T17:07:33.022Z,6.40
2022-09-25T17:10:02.320Z,6.15
2022-09-25T17:12:33.110Z,7.18
2022-09-25T17:15:02.971Z,9.20
2022-09-25T17:17:32.521Z,4.88
2022-09-25T17:20:01.092Z,8.75
2022-09-25T17:22:31.084Z,5.90
2022-09-25T17:25:04.035Z,9.75
2022-09-25T17:27:32.375Z,8.15
2022-09-25T17:30:01.542Z,7.88
2022-09-25T17:32:31.312Z,7.32
2022-09-25T17:35:01.845Z,5.25
2022-09-25T17:37:29.893Z,6.85
2022-09-25T17:39:59.756Z,7.85
2022-09-25T17:42:30.912Z,7.00
2022-09-25T17:44:59.172Z,6.68
2022-09-25T17:47:28.297Z,6.40
2022-09-25T17:49:57.604Z,6.03
2022-09-25T17:52:26.435Z,6.15
2022-09-25T17:54:54.674Z,6.22
2022-09-25T17:57:22.922Z,7.25
2022-09-25T17:59:56.697Z,6.40
2022-09-25T18:02:29.004Z,8.20
2022-09-25T18:04:57.294Z,6.78
2022-09-25T18:07:32.756Z,5.85
2022-09-25T18:10:01.866Z,5.85
2022-09-25T18:12:30.701Z,5.50
2022-09-25T18:15:01.520Z,5.90
2022-09-25T18:17:31.987Z,6.30
2022-09-25T18:20:20.262Z,5.45
2022-09-25T18:22:53.610Z,6.43
2022-09-25T18:25:25.555Z,7.07
2022-09-25T18:27:54.501Z,6.03
2022-09-25T18:30:26.040Z,8.45
2022-09-25T18:32:57.241Z,6.28
2022-09-25T18:35:25.966Z,6.50
2022-09-25T18:37:54.281Z,7.03
2022-09-25T18:40:23.654Z,6.65
2022-09-25T18:42:52.163Z,6.65
2022-09-25T18:45:21.883Z,6.47
2022-09-25T18:47:52.961Z,6.68
2022-09-25T18:50:21.273Z,7.13
2022-09-25T18:52:50.597Z,8.18
2022-09-25T18:55:19.976Z,5.65
2022-09-25T18:57:48.533Z,6.65
2022-09-25T19:00:22.695Z,6.30
2022-09-25T19:02:52.378Z,7.55
2022-09-25T19:05:20.670Z,7.25
2022-09-25T19:07:49.356Z,5.95
2022-09-25T19:10:18.117Z,5.53
2022-09-25T19:12:47.417Z,7.20
2022-09-25T19:15:16.702Z,7.53
2022-09-25T19:17:45.043Z,5.45
2022-09-25T19:20:14.675Z,5.65
2022-09-25T19:22:43.296Z,6.90
2022-09-25T19:25:11.707Z,5.68
2022-09-25T19:27:40.057Z,5.10
2022-09-25T19:30:09.202Z,5.10
2022-09-25T19:32:38.943Z,5.82
2022-09-25T19:35:08.250Z,5.78
2022-09-25T19:37:42.225Z,5.65
2022-09-25T19:40:29.517Z,5.65
2022-09-25T19:43:03.083Z,6.50
2022-09-25T19:45:32.140Z,6.28
2022-09-25T19:48:08.035Z,7.60
2022-09-25T19:50:41.110Z,8.00
2022-09-25T19:53:10.942Z,9.25
2022-09-25T19:55:44.779Z,7.78
2022-09-25T19:58:14.969Z,6.25
2022-09-25T20:00:44.231Z,7.47
2022-09-25T20:03:12.698Z,6.93
2022-09-25T20:05:49.283Z,9.70
2022-09-25T20:08:18.878Z,6.05
2022-09-25T20:10:48.197Z,7.53
2022-09-25T20:13:18.173Z,8.48
2022-09-25T20:15:55.055Z,8.25
2022-09-25T20:18:23.375Z,7.00
2022-09-25T20:20:51.655Z,8.52
2022-09-25T20:23:25.250Z,7.90
2022-09-25T20:25:54.291Z,8.30
2022-09-25T20:28:23.326Z,7.93
2022-09-25T20:30:57.562Z,7.45
2022-09-25T20:33:25.660Z,7.18
2022-09-25T20:35:53.753Z,8.85
2022-09-25T20:38:36.839Z,7.90
2022-09-25T20:41:08.116Z,8.30
2022-09-25T20:43:44.147Z,7.20
2022-09-25T20:46:34.173Z,7.57
2022-09-25T20:49:03.561Z,8.02
2022-09-25T20:51:35.287Z,8.38
2022-09-25T20:54:07.052Z,8.82
2022-09-25T20:56:36.111Z,7.53
2022-09-25T20:59:06.030Z,8.32
2022-09-25T21:01:36.762Z,8.40
2022-09-25T21:04:07.929Z,7.53
2022-09-25T21:06:44.503Z,7.43
2022-09-25T21:09:19.224Z,7.50
2022-09-25T21:11:47.510Z,8.43
2022-09-25T21:14:19.564Z,8.20
2022-09-25T21:16:48.973Z,7.25
2022-09-25T21:19:18.802Z,8.90
2022-09-25T21:22:00.279Z,6.55
2022-09-25T21:24:29.644Z,7.60
2022-09-25T21:26:57.627Z,8.43
2022-09-25T21:29:25.709Z,6.78
2022-09-25T21:31:55.343Z,8.55
2022-09-25T21:34:30.279Z,7.95
2022-09-25T21:36:58.394Z,7.72
2022-09-25T21:39:26.623Z,7.60
2022-09-25T21:41:56.058Z,6.85
2022-09-25T21:44:25.589Z,9.05
2022-09-25T21:46:53.643Z,7.50
2022-09-25T21:49:23.452Z,10.48
2022-09-25T21:51:52.380Z,8.40
2022-09-25T21:54:20.676Z,9.23
2022-09-25T21:56:49.371Z,8.18
2022-09-25T21:59:19.570Z,8.40
2022-09-25T22:01:47.711Z,8.48
2022-09-25T22:04:24.585Z,7.82
2022-09-25T22:06:52.740Z,8.73
2022-09-25T22:09:23.154Z,7.93
2022-09-25T22:11:54.094Z,8.27
2022-09-25T22:14:23.747Z,6.60
2022-09-25T22:16:53.904Z,7.45
2022-09-25T22:19:24.419Z,7.88
2022-09-25T22:21:54.427Z,8.23
2022-09-25T22:24:22.674Z,6.90
2022-09-25T22:26:52.557Z,7.88
2022-09-25T22:29:27.092Z,10.13
2022-09-25T22:31:55.788Z,7.30
2022-09-25T22:34:25.528Z,7.38
2022-09-25T22:36:59.171Z,7.18
2022-09-25T22:39:31.853Z,7.05
2022-09-25T22:42:00.161Z,6.53
2022-09-25T22:44:29.516Z,6.75
2022-09-25T22:46:58.088Z,6.85
2022-09-25T22:49:26.198Z,5.47
2022-09-25T22:51:54.183Z,6.07
2022-09-25T22:54:22.338Z,7.57
2022-09-25T22:56:50.360Z,6.40
2022-09-25T22:59:18.903Z,6.32
2022-09-25T23:01:49.921Z,7.53
2022-09-25T23:04:20.503Z,6.15
2022-09-25T23:06:48.949Z,7.00
2022-09-25T23:09:20.524Z,7.65
2022-09-25T23:11:49.254Z,7.30
2022-09-25T23:14:19.944Z,8.00
2022-09-25T23:16:52.088Z,7.57
2022-09-25T23:19:33.672Z,7.35
2022-09-25T23:22:01.698Z,7.35
2022-09-25T23:24:31.421Z,7.45
2022-09-25T23:26:59.490Z,6.38
2022-09-25T23:29:27.523Z,6.47
2022-09-25T23:31:57.279Z,8.30
2022-09-25T23:34:25.396Z,6.85
2022-09-25T23:36:53.399Z,7.68
2022-09-25T23:39:21.813Z,7.15
2022-09-25T23:41:50.083Z,7.28
2022-09-25T23:44:18.458Z,7.65
2022-09-25T23:46:46.700Z,6.85
2022-09-25T23:49:16.801Z,6.47
2022-09-25T23:51:48.126Z,7.57
2022-09-25T23:54:24.468Z,6.53
2022-09-25T23:56:52.504Z,6.68
2022-09-25T23:59:20.467Z,7.30
